sensor_id;sensor_type;location;lat;lon;timestamp;P1;durP1;ratioP1;P2;durP2;ratioP2
26177;SDS011;13924;47.670;10.310;2024-03-29T00:00:40;1.9;;;1.2;;
26177;SDS011;13924;47.670;10.310;2024-03-29T00:15:39;1.6;;;1.5;;
26177;SDS011;13924;47.670;10.310;2024-03-29T00:30:39;2.3;;;1.9;;
26177;SDS011;13924;47.670;10.310;2024-03-29T00:45:40;2.2;;;1.9;;
26177;SDS011;13924;47.670;10.310;2024-03-29T01:00:41;3.5;;;2.2;;
26177;SDS011;13924;47.670;10.310;2024-03-29T01:15:41;2.4;;;2.1;;
26177;SDS011;13924;47.670;10.310;2024-03-29T01:30:42;5.2;;;2.2;;
26177;SDS011;13924;47.670;10.310;2024-03-29T01:45:43;2.0;;;1.1;;
26177;SDS011;13924;47.670;10.310;2024-03-29T02:00:44;1.4;;;1.2;;
26177;SDS011;13924;47.670;10.310;2024-03-29T02:01:28;1.5;;;1.4;;
26177;SDS011;13924;47.670;10.310;2024-03-29T02:15:46;2.7;;;1.9;;
26177;SDS011;13924;47.670;10.310;2024-03-29T02:30:46;1.6;;;1.4;;
26177;SDS011;13924;47.670;10.310;2024-03-29T02:45:47;1.1;;;1.0;;
26177;SDS011;13924;47.670;10.310;2024-03-29T03:00:46;1.6;;;1.3;;
26177;SDS011;13924;47.670;10.310;2024-03-29T03:15:45;3.1;;;1.4;;
26177;SDS011;13924;47.670;10.310;2024-03-29T03:30:50;1.8;;;1.1;;
26177;SDS011;13924;47.670;10.310;2024-03-29T03:45:52;1.9;;;1.1;;
26177;SDS011;13924;47.670;10.310;2024-03-29T04:00:50;1.1;;;0.7;;
26177;SDS011;13924;47.670;10.310;2024-03-29T04:15:49;1.1;;;0.8;;
26177;SDS011;13924;47.670;10.310;2024-03-29T04:30:51;1.5;;;1.0;;
26177;SDS011;13924;47.670;10.310;2024-03-29T04:45:51;4.5;;;3.0;;
26177;SDS011;13924;47.670;10.310;2024-03-29T04:57:27;1.6;;;1.0;;
26177;SDS011;13924;47.670;10.310;2024-03-29T05:12:28;0.9;;;0.8;;
26177;SDS011;13924;47.670;10.310;2024-03-29T05:27:30;1.9;;;1.0;;
26177;SDS011;13924;47.670;10.310;2024-03-29T05:42:33;1.8;;;0.8;;
26177;SDS011;13924;47.670;10.310;2024-03-29T05:57:29;1.0;;;0.7;;
26177;SDS011;13924;47.670;10.310;2024-03-29T06:12:31;1.4;;;1.1;;
26177;SDS011;13924;47.670;10.310;2024-03-29T06:27:33;1.9;;;1.3;;
26177;SDS011;13924;47.670;10.310;2024-03-29T06:42:34;3.6;;;1.4;;
26177;SDS011;13924;47.670;10.310;2024-03-29T06:57:32;1.5;;;1.2;;
26177;SDS011;13924;47.670;10.310;2024-03-29T07:12:35;14.4;;;7.1;;
26177;SDS011;13924;47.670;10.310;2024-03-29T07:27:35;2.6;;;2.1;;
26177;SDS011;13924;47.670;10.310;2024-03-29T07:42:35;7.7;;;3.8;;
26177;SDS011;13924;47.670;10.310;2024-03-29T07:57:37;2.7;;;1.9;;
26177;SDS011;13924;47.670;10.310;2024-03-29T08:12:36;4.0;;;1.7;;
26177;SDS011;13924;47.670;10.310;2024-03-29T08:27:36;1.8;;;1.3;;
26177;SDS011;13924;47.670;10.310;2024-03-29T08:42:38;2.3;;;1.1;;
26177;SDS011;13924;47.670;10.310;2024-03-29T08:57:39;1.1;;;0.7;;
26177;SDS011;13924;47.670;10.310;2024-03-29T09:12:44;0.7;;;0.6;;
26177;SDS011;13924;47.670;10.310;2024-03-29T09:27:40;1.3;;;0.8;;
26177;SDS011;13924;47.670;10.310;2024-03-29T09:42:40;1.0;;;0.6;;
26177;SDS011;13924;47.670;10.310;2024-03-29T09:57:40;2.4;;;0.9;;
26177;SDS011;13924;47.670;10.310;2024-03-29T10:12:41;5.6;;;1.9;;
26177;SDS011;13924;47.670;10.310;2024-03-29T10:27:44;2.2;;;0.9;;
26177;SDS011;13924;47.670;10.310;2024-03-29T10:42:43;1.9;;;1.3;;
26177;SDS011;13924;47.670;10.310;2024-03-29T10:57:43;4.5;;;2.0;;
26177;SDS011;13924;47.670;10.310;2024-03-29T11:12:47;2.5;;;0.8;;
26177;SDS011;13924;47.670;10.310;2024-03-29T11:27:50;1.4;;;0.8;;
26177;SDS011;13924;47.670;10.310;2024-03-29T11:42:47;1.9;;;1.1;;
26177;SDS011;13924;47.670;10.310;2024-03-29T11:57:46;1.1;;;1.0;;
26177;SDS011;13924;47.670;10.310;2024-03-29T12:12:49;1.8;;;1.0;;
26177;SDS011;13924;47.670;10.310;2024-03-29T12:27:47;2.7;;;0.8;;
26177;SDS011;13924;47.670;10.310;2024-03-29T12:42:48;1.2;;;0.7;;
26177;SDS011;13924;47.670;10.310;2024-03-29T12:57:49;1.5;;;0.5;;
26177;SDS011;13924;47.670;10.310;2024-03-29T13:12:51;1.3;;;0.3;;
26177;SDS011;13924;47.670;10.310;2024-03-29T13:27:52;0.5;;;0.4;;
26177;SDS011;13924;47.670;10.310;2024-03-29T13:42:51;0.6;;;0.3;;
26177;SDS011;13924;47.670;10.310;2024-03-29T13:57:54;0.3;;;0.1;;
26177;SDS011;13924;47.670;10.310;2024-03-29T14:12:53;0.1;;;0.1;;
26177;SDS011;13924;47.670;10.310;2024-03-29T14:27:53;0.8;;;0.3;;
26177;SDS011;13924;47.670;10.310;2024-03-29T14:42:53;4.4;;;1.1;;
26177;SDS011;13924;47.670;10.310;2024-03-29T14:57:56;11.5;;;1.7;;
26177;SDS011;13924;47.670;10.310;2024-03-29T15:12:55;30.9;;;3.6;;
26177;SDS011;13924;47.670;10.310;2024-03-29T15:27:56;42.1;;;5.8;;
26177;SDS011;13924;47.670;10.310;2024-03-29T15:42:57;64.5;;;6.8;;
26177;SDS011;13924;47.670;10.310;2024-03-29T15:58:00;72.4;;;8.1;;
26177;SDS011;13924;47.670;10.310;2024-03-29T16:12:58;67.7;;;8.0;;
26177;SDS011;13924;47.670;10.310;2024-03-29T16:27:58;88.4;;;9.6;;
26177;SDS011;13924;47.670;10.310;2024-03-29T16:43:03;88.1;;;10.0;;
26177;SDS011;13924;47.670;10.310;2024-03-29T16:58:00;114.2;;;12.7;;
26177;SDS011;13924;47.670;10.310;2024-03-29T17:13:02;179.2;;;17.9;;
26177;SDS011;13924;47.670;10.310;2024-03-29T17:28:06;196.1;;;22.2;;
26177;SDS011;13924;47.670;10.310;2024-03-29T17:43:03;230.8;;;23.2;;
26177;SDS011;13924;47.670;10.310;2024-03-29T17:58:03;266.8;;;29.1;;
26177;SDS011;13924;47.670;10.310;2024-03-29T18:13:03;307.8;;;29.4;;
26177;SDS011;13924;47.670;10.310;2024-03-29T18:28:05;310.5;;;34.1;;
26177;SDS011;13924;47.670;10.310;2024-03-29T18:43:06;322.2;;;32.5;;
26177;SDS011;13924;47.670;10.310;2024-03-29T18:58:10;305.7;;;34.1;;
26177;SDS011;13924;47.670;10.310;2024-03-29T19:13:06;338.4;;;37.0;;
26177;SDS011;13924;47.670;10.310;2024-03-29T19:28:07;323.1;;;34.9;;
26177;SDS011;13924;47.670;10.310;2024-03-29T19:43:08;352.4;;;36.2;;
26177;SDS011;13924;47.670;10.310;2024-03-29T19:58:11;319.6;;;35.3;;
26177;SDS011;13924;47.670;10.310;2024-03-29T20:28:10;256.2;;;29.0;;
26177;SDS011;13924;47.670;10.310;2024-03-29T20:43:11;227.7;;;26.0;;
26177;SDS011;13924;47.670;10.310;2024-03-29T20:58:12;220.4;;;25.2;;
26177;SDS011;13924;47.670;10.310;2024-03-29T21:13:12;194.4;;;20.9;;
26177;SDS011;13924;47.670;10.310;2024-03-29T21:28:13;205.2;;;20.6;;
26177;SDS011;13924;47.670;10.310;2024-03-29T21:43:13;175.6;;;18.8;;
26177;SDS011;13924;47.670;10.310;2024-03-29T21:58:14;177.8;;;16.5;;
26177;SDS011;13924;47.670;10.310;2024-03-29T22:13:14;179.6;;;18.5;;
26177;SDS011;13924;47.670;10.310;2024-03-29T22:28:17;167.4;;;15.8;;
26177;SDS011;13924;47.670;10.310;2024-03-29T22:43:17;176.9;;;17.6;;
26177;SDS011;13924;47.670;10.310;2024-03-29T22:58:18;146.5;;;14.6;;
26177;SDS011;13924;47.670;10.310;2024-03-29T23:00:35;149.1;;;15.8;;
26177;SDS011;13924;47.670;10.310;2024-03-29T23:15:35;151.5;;;15.7;;
26177;SDS011;13924;47.670;10.310;2024-03-29T23:30:39;167.8;;;17.2;;
26177;SDS011;13924;47.670;10.310;2024-03-29T23:45:35;124.6;;;12.6;;
